Time;durP1;ratioP1;P1;durP2;ratioP2;P2;SDS_P1;SDS_P2;PMS_P1;PMS_P2;Temp;Humidity;BMP_temperature;BMP_pressure;BME280_temperature;BME280_humidity;BME280_pressure;Samples;Min_cycle;Max_cycle;Signal;HPM_P1;HPM_P2
2021/12/11 00:00:22;;;;;;;;;;;0.60;82.50;;;;;;5017555;28;19917;-89
2021/12/11 00:02:56;;;;;;;;;;;0.50;82.40;;;;;;5013728;28;20386;-88
2021/12/11 00:05:22;;;;;;;;;;;0.50;82.40;;;;;;5034400;28;19913;-88
2021/12/11 00:07:48;;;;;;;;;;;0.40;82.80;;;;;;5013703;28;20391;-88
2021/12/11 00:10:17;;;;;;;;;;;0.30;82.70;;;;;;5005631;28;19925;-88
2021/12/11 00:12:53;;;;;;;;;;;0.30;82.60;;;;;;5013648;28;20360;-88
2021/12/11 00:15:24;;;;;;;;;;;0.30;82.50;;;;;;5015893;28;19913;-89
2021/12/11 00:17:56;;;;;;;;;;;0.20;82.90;;;;;;5007237;28;19914;-89
2021/12/11 00:20:25;;;;;;;;;;;0.20;83.30;;;;;;5004447;28;20004;-89
2021/12/11 00:22:51;;;;;;;;;;;0.20;83.30;;;;;;5024248;28;19946;-89
2021/12/11 00:25:17;;;;;;;;;;;0.20;83.10;;;;;;4998580;28;20383;-89
2021/12/11 00:27:44;;;;;;;;;;;0.20;83.30;;;;;;5030276;28;19963;-89
2021/12/11 00:30:17;;;;;;;;;;;0.20;83.40;;;;;;5019009;28;19999;-89
2021/12/11 00:32:42;;;;;;;;;;;0.20;83.30;;;;;;5002750;28;19996;-88
2021/12/11 00:35:13;;;;;;;;;;;0.30;83.30;;;;;;5018433;28;20011;-88
2021/12/11 00:37:39;;;;;;;;;;;0.30;83.00;;;;;;5000708;28;19917;-89
2021/12/11 00:40:10;;;;;;;;;;;0.20;83.10;;;;;;5012980;28;20410;-89
2021/12/11 00:42:37;;;;;;;;;;;0.20;83.40;;;;;;5017740;28;20512;-89
2021/12/11 00:45:14;;;;;;;;;;;0.30;83.10;;;;;;5009255;28;20414;-89
2021/12/11 00:47:44;;;;;;;;;;;0.30;82.90;;;;;;5012900;28;19913;-89
2021/12/11 00:50:11;;;;;;;;;;;0.20;83.30;;;;;;5002877;28;19917;-89
2021/12/11 00:52:42;;;;;;;;;;;0.20;83.10;;;;;;5005251;28;19917;-89
2021/12/11 00:55:16;;;;;;;;;;;0.10;83.60;;;;;;5009523;28;19917;-89
2021/12/11 00:57:42;;;;;;;;;;;0.10;83.90;;;;;;5012019;28;19924;-88
2021/12/11 01:00:10;;;;;;;;;;;0.10;84.60;;;;;;5003618;28;19921;-89
2021/12/11 01:02:36;;;;;;;;;;;0.10;84.70;;;;;;5008383;28;19920;-89
2021/12/11 01:05:03;;;;;;;;;;;0.10;84.80;;;;;;5008925;28;20142;-89
2021/12/11 01:07:32;;;;;;;;;;;0.20;84.80;;;;;;5030292;28;19919;-89
2021/12/11 01:10:00;;;;;;;;;;;0.30;84.90;;;;;;4999502;28;20341;-89
2021/12/11 01:12:39;;;;;;;;;;;0.30;84.80;;;;;;5028809;28;19913;-89
2021/12/11 01:15:12;;;;;;;;;;;0.30;85.10;;;;;;5029315;28;20364;-89
2021/12/11 01:17:47;;;;;;;;;;;0.40;85.20;;;;;;5020978;28;19955;-89
2021/12/11 01:20:19;;;;;;;;;;;0.40;85.20;;;;;;4995302;28;20411;-89
2021/12/11 01:22:45;;;;;;;;;;;0.40;85.30;;;;;;5000336;28;20008;-89
2021/12/11 01:25:13;;;;;;;;;;;0.30;85.30;;;;;;5003083;28;19990;-89
2021/12/11 01:27:40;;;;;;;;;;;0.40;85.40;;;;;;5018397;28;20008;-89
2021/12/11 01:30:08;;;;;;;;;;;0.30;85.40;;;;;;4996986;28;19921;-89
2021/12/11 01:32:34;;;;;;;;;;;0.40;85.30;;;;;;5009398;28;19914;-89
2021/12/11 01:35:00;;;;;;;;;;;0.30;85.20;;;;;;5013006;28;20287;-89
2021/12/11 01:37:26;;;;;;;;;;;0.40;85.50;;;;;;5013008;28;19906;-89
2021/12/11 01:39:52;;;;;;;;;;;0.50;85.20;;;;;;5024291;28;19921;-89
2021/12/11 01:42:19;;;;;;;;;;;0.50;85.30;;;;;;5011899;28;20406;-89
2021/12/11 01:44:45;;;;;;;;;;;0.50;85.40;;;;;;5008031;28;19913;-89
2021/12/11 01:47:19;;;;;;;;;;;0.50;85.60;;;;;;5005269;28;19920;-89
2021/12/11 01:49:47;;;;;;;;;;;0.50;85.70;;;;;;5010157;28;19913;-89
2021/12/11 01:52:29;;;;;;;;;;;0.50;86.10;;;;;;5026259;28;19923;-89
2021/12/11 01:54:55;;;;;;;;;;;0.50;85.90;;;;;;5004177;28;19971;-88
2021/12/11 01:57:24;;;;;;;;;;;0.50;86.00;;;;;;5009405;28;20368;-89
2021/12/11 02:02:27;;;;;;;;;;;0.50;85.80;;;;;;5051048;28;19971;-80
2021/12/11 02:04:55;;;;;;;;;;;0.50;85.50;;;;;;5051611;28;19920;-81
2021/12/11 02:07:25;;;;;;;;;;;0.50;85.60;;;;;;5026578;28;19919;-81
2021/12/11 02:09:56;;;;;;;;;;;0.50;85.40;;;;;;5015118;28;20043;-78
2021/12/11 02:12:27;;;;;;;;;;;0.50;85.30;;;;;;5014978;28;19920;-79
2021/12/11 02:14:53;;;;;;;;;;;0.50;85.50;;;;;;5025373;28;20063;-78
2021/12/11 02:17:37;;;;;;;;;;;0.50;85.50;;;;;;5030700;28;19943;-79
2021/12/11 02:20:05;;;;;;;;;;;0.50;85.70;;;;;;5030764;28;19929;-79
2021/12/11 02:22:37;;;;;;;;;;;0.50;85.50;;;;;;5030063;28;20385;-78
2021/12/11 02:25:05;;;;;;;;;;;0.60;85.50;;;;;;5032465;28;19929;-78
2021/12/11 02:27:33;;;;;;;;;;;0.60;85.70;;;;;;5032647;28;19914;-78
2021/12/11 02:30:20;;;;;;;;;;;0.60;85.50;;;;;;5037137;28;19913;-81
2021/12/11 02:33:08;;;;;;;;;;;0.50;85.80;;;;;;5028462;28;19917;-78
2021/12/11 02:35:43;;;;;;;;;;;0.50;85.80;;;;;;5034433;28;19982;-78
2021/12/11 02:38:12;;;;;;;;;;;0.60;85.90;;;;;;5023646;28;19937;-77
2021/12/11 02:40:44;;;;;;;;;;;0.50;85.80;;;;;;5036227;28;19917;-78
2021/12/11 02:43:16;;;;;;;;;;;0.50;86.00;;;;;;5034948;28;19924;-78
2021/12/11 02:45:49;;;;;;;;;;;0.50;85.60;;;;;;5032831;28;19914;-78
2021/12/11 02:48:15;;;;;;;;;;;0.50;85.70;;;;;;5034071;28;19925;-78
2021/12/11 02:50:42;;;;;;;;;;;0.30;85.40;;;;;;5033204;28;20389;-78
2021/12/11 02:53:08;;;;;;;;;;;0.30;85.20;;;;;;5033533;28;19917;-79
2021/12/11 02:55:49;;;;;;;;;;;0.30;85.30;;;;;;5034787;28;20427;-79
2021/12/11 02:58:19;;;;;;;;;;;0.30;85.00;;;;;;5034422;28;19979;-78
2021/12/11 03:00:50;;;;;;;;;;;0.20;85.30;;;;;;5032486;28;20117;-79
2021/12/11 03:03:16;;;;;;;;;;;0.30;85.70;;;;;;5033684;28;19934;-79
2021/12/11 03:05:54;;;;;;;;;;;0.40;85.80;;;;;;5034594;28;19913;-78
2021/12/11 03:08:20;;;;;;;;;;;0.40;86.10;;;;;;5033202;28;19989;-79
2021/12/11 03:10:48;;;;;;;;;;;0.40;86.10;;;;;;5032919;28;19960;-79
2021/12/11 03:13:14;;;;;;;;;;;0.40;86.20;;;;;;5032752;28;19913;-79
2021/12/11 03:15:40;;;;;;;;;;;0.30;86.10;;;;;;5033478;28;19913;-79
2021/12/11 03:18:06;;;;;;;;;;;0.30;85.80;;;;;;5035737;28;19921;-79
2021/12/11 03:20:32;;;;;;;;;;;0.10;85.00;;;;;;5033573;28;19924;-79
2021/12/11 03:22:58;;;;;;;;;;;0.00;85.00;;;;;;5036986;28;20385;-79
2021/12/11 03:25:25;;;;;;;;;;;0.00;85.20;;;;;;5034451;28;19988;-81
2021/12/11 03:27:51;;;;;;;;;;;0.00;85.60;;;;;;5034220;28;19913;-81
2021/12/11 03:30:21;;;;;;;;;;;0.00;85.40;;;;;;5031828;28;19959;-80
2021/12/11 03:32:49;;;;;;;;;;;0.10;85.30;;;;;;5033894;28;20098;-81
2021/12/11 03:35:15;;;;;;;;;;;0.00;85.40;;;;;;5032236;28;19913;-82
2021/12/11 03:37:40;;;;;;;;;;;0.10;85.80;;;;;;5033996;28;20297;-81
2021/12/11 03:40:06;;;;;;;;;;;0.20;85.90;;;;;;5030666;28;19927;-81
2021/12/11 03:42:34;;;;;;;;;;;0.20;86.50;;;;;;5033080;28;19913;-81
2021/12/11 03:45:00;;;;;;;;;;;0.30;86.40;;;;;;5014672;28;19932;-81
2021/12/11 03:47:28;;;;;;;;;;;0.40;86.70;;;;;;5017479;28;20387;-81
2021/12/11 03:49:54;;;;;;;;;;;0.30;86.40;;;;;;5031045;28;20325;-77
2021/12/11 03:52:19;;;;;;;;;;;0.30;86.60;;;;;;5034198;28;19913;-79
2021/12/11 03:54:46;;;;;;;;;;;0.30;86.80;;;;;;5032628;28;19928;-79
2021/12/11 03:57:15;;;;;;;;;;;0.40;86.70;;;;;;5032234;28;19924;-79
2021/12/11 03:59:41;;;;;;;;;;;0.40;86.50;;;;;;5031159;28;20012;-80
2021/12/11 04:02:08;;;;;;;;;;;0.40;86.60;;;;;;5031575;28;20398;-80
2021/12/11 04:05:00;;;;;;;;;;;0.40;86.60;;;;;;5031406;28;20573;-80
2021/12/11 04:07:29;;;;;;;;;;;0.50;86.70;;;;;;5011017;28;19913;-80
2021/12/11 04:09:55;;;;;;;;;;;0.50;86.80;;;;;;5030505;28;19917;-80
2021/12/11 04:12:21;;;;;;;;;;;0.50;86.60;;;;;;5015018;28;20353;-80
2021/12/11 04:14:48;;;;;;;;;;;0.50;86.60;;;;;;5014834;28;20293;-79
2021/12/11 04:17:18;;;;;;;;;;;0.40;86.70;;;;;;5031818;28;19995;-80
2021/12/11 04:19:45;;;;;;;;;;;0.40;86.90;;;;;;5032024;28;19925;-80
2021/12/11 04:22:10;;;;;;;;;;;0.40;86.90;;;;;;5018088;28;19928;-80
2021/12/11 04:24:37;;;;;;;;;;;0.30;86.90;;;;;;5031949;28;20285;-80
2021/12/11 04:27:04;;;;;;;;;;;0.40;87.20;;;;;;5033437;28;19917;-80
2021/12/11 04:29:30;;;;;;;;;;;0.50;87.10;;;;;;5032917;28;20404;-80
2021/12/11 04:31:57;;;;;;;;;;;0.50;86.70;;;;;;5033257;28;19917;-80
2021/12/11 04:34:22;;;;;;;;;;;0.40;86.70;;;;;;5017197;28;19916;-80
2021/12/11 04:36:50;;;;;;;;;;;0.30;86.40;;;;;;5036072;28;20392;-80
2021/12/11 04:39:17;;;;;;;;;;;0.30;86.60;;;;;;5033318;28;19921;-80
2021/12/11 04:41:52;;;;;;;;;;;0.30;86.70;;;;;;5033894;28;20008;-81
2021/12/11 04:44:24;;;;;;;;;;;0.30;87.00;;;;;;5031471;28;19913;-80
2021/12/11 04:46:50;;;;;;;;;;;0.40;87.10;;;;;;5033488;28;19930;-79
2021/12/11 04:49:41;;;;;;;;;;;0.50;87.20;;;;;;5014418;28;20349;-78
2021/12/11 04:52:18;;;;;;;;;;;0.40;87.00;;;;;;5007390;28;19997;-80
2021/12/11 04:55:09;;;;;;;;;;;0.40;87.20;;;;;;5016383;28;19920;-80
2021/12/11 05:03:28;;;;;;;;;;;0.50;87.00;;;;;;5043453;28;19913;-79
2021/12/11 05:08:59;;;;;;;;;;;0.50;86.90;;;;;;5034809;28;19913;-80
2021/12/11 05:11:13;;;;;;;;;;;0.40;86.60;;;;;;5026805;28;19927;-80
2021/12/11 05:13:39;;;;;;;;;;;0.40;86.80;;;;;;5033486;28;20393;-80
2021/12/11 05:16:08;;;;;;;;;;;0.40;86.60;;;;;;5031803;28;19921;-80
2021/12/11 05:18:34;;;;;;;;;;;0.40;86.70;;;;;;5030493;28;19965;-80
2021/12/11 05:21:02;;;;;;;;;;;0.30;86.80;;;;;;5031402;28;20290;-80
2021/12/11 05:23:27;;;;;;;;;;;0.30;87.10;;;;;;5033362;28;19923;-80
2021/12/11 05:25:53;;;;;;;;;;;0.30;87.10;;;;;;5031988;28;19913;-80
2021/12/11 05:28:19;;;;;;;;;;;0.30;86.90;;;;;;5030914;28;19913;-79
2021/12/11 05:30:46;;;;;;;;;;;0.30;86.70;;;;;;5032943;28;19960;-80
2021/12/11 05:33:12;;;;;;;;;;;0.20;86.70;;;;;;5031262;28;19943;-80
2021/12/11 05:35:39;;;;;;;;;;;0.20;86.60;;;;;;5031674;28;20437;-80
2021/12/11 05:38:05;;;;;;;;;;;0.30;87.10;;;;;;5032611;28;20395;-79
2021/12/11 05:40:34;;;;;;;;;;;0.30;87.20;;;;;;5031953;28;19944;-79
2021/12/11 05:42:59;;;;;;;;;;;0.20;87.20;;;;;;5029955;28;19924;-78
2021/12/11 05:45:25;;;;;;;;;;;0.30;87.10;;;;;;5030420;28;19925;-80
2021/12/11 05:47:52;;;;;;;;;;;0.20;86.90;;;;;;5031632;28;19919;-78
2021/12/11 05:50:23;;;;;;;;;;;0.30;87.20;;;;;;5031084;28;19917;-79
2021/12/11 05:52:49;;;;;;;;;;;0.30;86.90;;;;;;5035490;28;19920;-79
2021/12/11 05:55:17;;;;;;;;;;;0.30;87.00;;;;;;5031197;28;19913;-79
2021/12/11 05:57:50;;;;;;;;;;;0.30;86.90;;;;;;5031691;28;19913;-79
2021/12/11 06:00:16;;;;;;;;;;;0.20;86.70;;;;;;5034193;28;19925;-80
2021/12/11 06:02:42;;;;;;;;;;;0.20;87.00;;;;;;5035506;28;19913;-79
2021/12/11 06:05:07;;;;;;;;;;;0.20;86.70;;;;;;5037957;28;19921;-80
2021/12/11 06:07:33;;;;;;;;;;;0.20;86.90;;;;;;5038785;28;19913;-80
2021/12/11 06:10:05;;;;;;;;;;;0.20;86.90;;;;;;5036742;28;19960;-79
2021/12/11 06:12:31;;;;;;;;;;;0.20;87.00;;;;;;5036622;28;19935;-80
2021/12/11 06:14:56;;;;;;;;;;;0.20;87.10;;;;;;5033687;28;19913;-80
2021/12/11 06:17:24;;;;;;;;;;;0.30;87.20;;;;;;5018559;28;19921;-80
2021/12/11 06:19:52;;;;;;;;;;;0.40;87.50;;;;;;5017810;28;19924;-79
2021/12/11 06:22:20;;;;;;;;;;;0.50;87.50;;;;;;5033362;28;20127;-80
2021/12/11 06:24:45;;;;;;;;;;;0.50;87.50;;;;;;5035988;28;19917;-79
2021/12/11 06:27:11;;;;;;;;;;;0.50;87.60;;;;;;5034193;28;20004;-79
2021/12/11 06:29:36;;;;;;;;;;;0.50;87.60;;;;;;5033831;28;19992;-80
2021/12/11 06:32:03;;;;;;;;;;;0.60;87.80;;;;;;5035322;28;19993;-80
2021/12/11 06:34:28;;;;;;;;;;;0.60;87.90;;;;;;5029102;28;20323;-80
2021/12/11 06:36:54;;;;;;;;;;;0.60;87.90;;;;;;5034355;28;19940;-80
2021/12/11 06:39:22;;;;;;;;;;;0.60;87.90;;;;;;5033544;28;20020;-79
2021/12/11 06:41:50;;;;;;;;;;;0.60;87.90;;;;;;5036174;28;20000;-78
2021/12/11 06:44:16;;;;;;;;;;;0.60;87.90;;;;;;5034009;28;19920;-79
2021/12/11 06:46:42;;;;;;;;;;;0.50;88.20;;;;;;5035380;28;19921;-80
2021/12/11 06:49:08;;;;;;;;;;;0.60;88.30;;;;;;5035351;28;19964;-80
2021/12/11 06:51:34;;;;;;;;;;;0.60;88.10;;;;;;5034350;28;20290;-79
2021/12/11 06:54:01;;;;;;;;;;;0.70;88.10;;;;;;5015204;28;19913;-80
2021/12/11 06:56:27;;;;;;;;;;;0.80;87.90;;;;;;5008429;28;20033;-79
2021/12/11 06:58:53;;;;;;;;;;;0.80;87.90;;;;;;5032105;28;19913;-80
2021/12/11 07:01:19;;;;;;;;;;;0.80;88.00;;;;;;5033231;28;20389;-79
2021/12/11 07:03:45;;;;;;;;;;;0.80;88.00;;;;;;5033276;28;19921;-79
2021/12/11 07:06:11;;;;;;;;;;;0.80;88.00;;;;;;5034175;28;19913;-82
2021/12/11 07:08:38;;;;;;;;;;;0.80;88.30;;;;;;5034204;28;19920;-80
2021/12/11 07:11:04;;;;;;;;;;;0.80;88.60;;;;;;5031864;28;19917;-80
2021/12/11 07:13:30;;;;;;;;;;;0.80;88.70;;;;;;5035106;28;20364;-82
2021/12/11 07:15:56;;;;;;;;;;;0.90;88.70;;;;;;5017969;28;19924;-81
2021/12/11 07:18:22;;;;;;;;;;;1.00;88.70;;;;;;5034833;28;19921;-81
2021/12/11 07:20:48;;;;;;;;;;;1.00;88.70;;;;;;5036998;28;19964;-81
2021/12/11 07:23:14;;;;;;;;;;;1.20;88.60;;;;;;5030228;28;19913;-81
2021/12/11 07:25:44;;;;;;;;;;;1.20;88.50;;;;;;5033057;28;20490;-80
2021/12/11 07:28:11;;;;;;;;;;;1.20;88.50;;;;;;5032358;28;19939;-79
2021/12/11 07:30:38;;;;;;;;;;;1.20;88.30;;;;;;5033659;28;19913;-80
2021/12/11 07:33:04;;;;;;;;;;;1.30;88.40;;;;;;5039611;28;19919;-80
2021/12/11 07:35:31;;;;;;;;;;;1.20;88.40;;;;;;5033892;28;19944;-80
2021/12/11 07:37:57;;;;;;;;;;;1.20;88.50;;;;;;5033535;28;20234;-80
2021/12/11 07:40:24;;;;;;;;;;;1.40;88.50;;;;;;5033189;28;20016;-79
2021/12/11 07:42:50;;;;;;;;;;;1.40;88.00;;;;;;5033209;28;19962;-80
2021/12/11 07:45:17;;;;;;;;;;;1.40;88.00;;;;;;5032569;28;19924;-79
2021/12/11 07:47:42;;;;;;;;;;;1.30;88.00;;;;;;5035309;28;19913;-80
2021/12/11 07:50:08;;;;;;;;;;;1.30;88.00;;;;;;5034418;28;19921;-79
2021/12/11 07:52:34;;;;;;;;;;;1.30;88.40;;;;;;5036176;28;20372;-79
2021/12/11 07:54:59;;;;;;;;;;;1.30;88.40;;;;;;5032206;28;19913;-80
2021/12/11 07:57:25;;;;;;;;;;;1.30;88.80;;;;;;5033614;28;19947;-79
2021/12/11 07:59:50;;;;;;;;;;;1.30;89.00;;;;;;5032280;28;19923;-78
2021/12/11 08:02:16;;;;;;;;;;;1.50;89.00;;;;;;5058842;23;19925;-84
2021/12/11 08:04:42;;;;;;;;;;;1.40;88.70;;;;;;5017438;28;20403;-84
2021/12/11 08:07:09;;;;;;;;;;;1.50;88.90;;;;;;5045549;28;21181;-83
2021/12/11 08:09:37;;;;;;;;;;;1.60;89.00;;;;;;5038757;28;20007;-84
2021/12/11 08:12:04;;;;;;;;;;;1.60;88.70;;;;;;5049911;28;19919;-84
2021/12/11 08:14:29;;;;;;;;;;;1.60;88.50;;;;;;5036720;28;19924;-84
2021/12/11 08:16:58;;;;;;;;;;;1.60;88.70;;;;;;5038351;28;21388;-83
2021/12/11 08:19:25;;;;;;;;;;;1.70;88.40;;;;;;5018370;28;19929;-85
2021/12/11 08:21:53;;;;;;;;;;;1.60;88.30;;;;;;5029085;28;20380;-84
2021/12/11 08:24:19;;;;;;;;;;;1.70;88.50;;;;;;5038035;28;20039;-84
2021/12/11 08:26:46;;;;;;;;;;;1.60;88.50;;;;;;5018729;28;20007;-84
2021/12/11 08:29:12;;;;;;;;;;;1.60;88.50;;;;;;5037528;28;19913;-85
2021/12/11 08:31:39;;;;;;;;;;;1.70;88.50;;;;;;5052206;28;20436;-84
2021/12/11 08:34:05;;;;;;;;;;;1.80;88.50;;;;;;5038741;28;19916;-85
2021/12/11 08:36:32;;;;;;;;;;;1.80;88.40;;;;;;5018067;28;20398;-87
2021/12/11 08:38:59;;;;;;;;;;;1.90;88.40;;;;;;5049749;28;19963;-86
2021/12/11 08:41:27;;;;;;;;;;;1.90;88.50;;;;;;5026985;28;19985;-89
2021/12/11 08:43:59;;;;;;;;;;;2.00;88.40;;;;;;5015233;28;19921;-89
2021/12/11 08:46:27;;;;;;;;;;;2.10;88.10;;;;;;5015886;28;19960;-88
2021/12/11 08:48:54;;;;;;;;;;;2.10;87.80;;;;;;5015355;28;20387;-88
2021/12/11 08:51:25;;;;;;;;;;;2.10;87.90;;;;;;5012995;28;19909;-87
2021/12/11 08:53:50;;;;;;;;;;;2.10;87.80;;;;;;5040385;28;19956;-87
2021/12/11 08:56:16;;;;;;;;;;;2.10;87.80;;;;;;5039840;28;19901;-85
2021/12/11 08:58:43;;;;;;;;;;;2.30;87.50;;;;;;5017364;28;20401;-84
2021/12/11 09:01:11;;;;;;;;;;;2.30;87.10;;;;;;5017762;28;19921;-84
2021/12/11 09:03:42;;;;;;;;;;;2.30;87.10;;;;;;5023354;28;19980;-86
2021/12/11 09:06:10;;;;;;;;;;;2.20;87.10;;;;;;5059749;28;19959;-84
2021/12/11 09:08:57;;;;;;;;;;;2.30;86.90;;;;;;5033061;28;19913;-88
2021/12/11 09:11:28;;;;;;;;;;;2.20;86.90;;;;;;4968927;28;19917;-89
2021/12/11 09:14:07;;;;;;;;;;;2.20;87.40;;;;;;5008982;28;19909;-90
2021/12/11 09:16:32;;;;;;;;;;;2.30;87.40;;;;;;4999543;28;19938;-84
2021/12/11 09:19:07;;;;;;;;;;;2.20;87.40;;;;;;5044191;28;19985;-87
2021/12/11 09:21:53;;;;;;;;;;;2.30;87.70;;;;;;5037639;28;19993;-87
2021/12/11 09:24:24;;;;;;;;;;;2.50;87.50;;;;;;5038917;28;19924;-87
2021/12/11 09:26:52;;;;;;;;;;;2.50;87.30;;;;;;5015300;28;20010;-90
2021/12/11 09:29:30;;;;;;;;;;;2.70;87.40;;;;;;5014695;28;20324;-88
2021/12/11 09:31:59;;;;;;;;;;;2.90;87.00;;;;;;5023218;28;19912;-88
2021/12/11 09:34:27;;;;;;;;;;;3.00;86.40;;;;;;5024447;28;19921;-87
2021/12/11 09:36:57;;;;;;;;;;;3.00;86.20;;;;;;5031490;28;19935;-87
2021/12/11 09:39:38;;;;;;;;;;;3.00;85.80;;;;;;5032591;28;19921;-87
2021/12/11 09:42:03;;;;;;;;;;;3.00;85.60;;;;;;5018194;28;19909;-87
2021/12/11 09:44:34;;;;;;;;;;;2.80;85.90;;;;;;5032842;28;19928;-87
2021/12/11 09:47:06;;;;;;;;;;;2.80;86.00;;;;;;5017600;28;19957;-88
2021/12/11 09:49:37;;;;;;;;;;;2.70;86.40;;;;;;5018263;28;19909;-87
2021/12/11 09:52:15;;;;;;;;;;;2.80;86.60;;;;;;5023473;28;19928;-88
2021/12/11 09:54:41;;;;;;;;;;;2.80;86.60;;;;;;5017285;28;19967;-87
2021/12/11 09:57:09;;;;;;;;;;;3.00;86.30;;;;;;5015890;28;19992;-88
2021/12/11 09:59:36;;;;;;;;;;;3.00;86.20;;;;;;5015044;28;19916;-87
2021/12/11 10:02:10;;;;;;;;;;;3.20;86.20;;;;;;4979615;23;1788732;-78
2021/12/11 10:04:52;;;;;;;;;;;3.30;86.00;;;;;;5059427;28;20571;-78
2021/12/11 10:07:28;;;;;;;;;;;3.40;85.70;;;;;;5059958;28;19912;-78
2021/12/11 10:09:56;;;;;;;;;;;3.50;85.60;;;;;;5063021;28;19897;-78
2021/12/11 10:12:26;;;;;;;;;;;3.50;85.30;;;;;;5065733;28;20304;-79
2021/12/11 10:14:57;;;;;;;;;;;3.60;85.30;;;;;;5058760;28;19913;-80
2021/12/11 10:17:24;;;;;;;;;;;3.50;84.90;;;;;;5059890;28;20114;-80
2021/12/11 10:19:51;;;;;;;;;;;3.40;85.20;;;;;;5057769;28;19923;-78
2021/12/11 10:22:20;;;;;;;;;;;3.30;85.50;;;;;;5054859;28;19932;-79
2021/12/11 10:24:46;;;;;;;;;;;3.20;85.80;;;;;;5064489;28;19920;-80
2021/12/11 10:27:14;;;;;;;;;;;3.20;86.00;;;;;;5067215;28;19965;-80
2021/12/11 10:29:41;;;;;;;;;;;3.30;86.30;;;;;;5061057;28;19924;-81
2021/12/11 10:32:10;;;;;;;;;;;3.50;86.20;;;;;;5046935;28;20309;-80
2021/12/11 10:34:36;;;;;;;;;;;3.60;85.40;;;;;;5038150;28;19947;-80
2021/12/11 10:37:04;;;;;;;;;;;3.80;85.20;;;;;;5051639;28;20357;-80
2021/12/11 10:39:29;;;;;;;;;;;3.80;85.60;;;;;;5054138;28;19978;-79
2021/12/11 10:41:55;;;;;;;;;;;3.90;84.70;;;;;;5060166;28;19940;-79
2021/12/11 10:44:26;;;;;;;;;;;4.00;84.70;;;;;;5058710;28;20581;-79
2021/12/11 10:46:58;;;;;;;;;;;4.00;84.90;;;;;;5060674;28;19916;-79
2021/12/11 10:49:25;;;;;;;;;;;4.10;84.70;;;;;;5061879;28;19937;-78
2021/12/11 10:51:52;;;;;;;;;;;4.10;84.40;;;;;;5060324;28;19948;-79
2021/12/11 10:54:19;;;;;;;;;;;4.00;84.80;;;;;;5056050;28;19913;-79
2021/12/11 10:56:45;;;;;;;;;;;3.80;85.10;;;;;;5068013;28;19913;-80
2021/12/11 10:59:15;;;;;;;;;;;4.00;85.60;;;;;;5058828;28;19924;-79
2021/12/11 11:01:42;;;;;;;;;;;4.30;85.20;;;;;;5059948;28;19924;-79
2021/12/11 11:04:28;;;;;;;;;;;4.30;84.70;;;;;;5062506;28;19917;-80
2021/12/11 11:06:54;;;;;;;;;;;4.30;84.40;;;;;;5063155;28;19916;-79
2021/12/11 11:09:20;;;;;;;;;;;4.10;84.70;;;;;;5063624;28;20069;-80
2021/12/11 11:11:47;;;;;;;;;;;4.20;85.10;;;;;;5066291;28;19932;-80
2021/12/11 11:14:13;;;;;;;;;;;4.30;84.70;;;;;;5059010;28;19917;-79
2021/12/11 11:16:41;;;;;;;;;;;4.40;84.80;;;;;;5059134;28;19979;-79
2021/12/11 11:19:07;;;;;;;;;;;4.40;85.20;;;;;;5058692;28;19920;-80
2021/12/11 11:21:36;;;;;;;;;;;4.40;85.00;;;;;;5057086;28;20567;-79
2021/12/11 11:24:03;;;;;;;;;;;4.40;85.20;;;;;;5060921;28;19916;-78
2021/12/11 11:26:30;;;;;;;;;;;4.40;85.60;;;;;;5045619;28;20000;-80
2021/12/11 11:29:00;;;;;;;;;;;4.40;85.40;;;;;;5048555;28;19921;-79
2021/12/11 11:31:33;;;;;;;;;;;4.40;85.50;;;;;;5064397;28;19971;-79
2021/12/11 11:33:59;;;;;;;;;;;4.50;85.50;;;;;;5067178;28;19919;-80
2021/12/11 11:36:26;;;;;;;;;;;4.50;85.60;;;;;;5065723;28;19956;-79
2021/12/11 11:38:53;;;;;;;;;;;4.40;85.80;;;;;;5055843;28;19959;-79
2021/12/11 11:41:24;;;;;;;;;;;4.40;86.30;;;;;;5051685;28;19924;-79
2021/12/11 11:43:50;;;;;;;;;;;4.50;86.00;;;;;;5059977;28;19924;-79
2021/12/11 11:46:17;;;;;;;;;;;4.60;85.80;;;;;;5061394;28;19920;-78
2021/12/11 11:48:44;;;;;;;;;;;4.50;86.00;;;;;;5063663;28;19913;-78
2021/12/11 11:51:12;;;;;;;;;;;4.40;86.80;;;;;;5064137;28;19923;-77
2021/12/11 11:53:38;;;;;;;;;;;4.50;86.60;;;;;;5059321;28;20120;-81
2021/12/11 11:56:05;;;;;;;;;;;4.60;85.60;;;;;;5053040;28;19919;-79
2021/12/11 11:58:30;;;;;;;;;;;4.50;85.60;;;;;;5054278;28;20768;-79
2021/12/11 12:01:00;;;;;;;;;;;4.50;86.00;;;;;;5063500;28;19921;-79
2021/12/11 12:03:28;;;;;;;;;;;4.30;86.10;;;;;;5061532;28;19924;-79
2021/12/11 12:05:55;;;;;;;;;;;4.40;86.50;;;;;;5060101;28;20004;-79
2021/12/11 12:08:20;;;;;;;;;;;4.40;86.80;;;;;;5061213;28;19912;-79
2021/12/11 12:10:47;;;;;;;;;;;4.50;86.90;;;;;;5064120;28;19989;-79
2021/12/11 12:13:13;;;;;;;;;;;4.60;86.60;;;;;;5061486;28;19943;-79
2021/12/11 12:15:43;;;;;;;;;;;4.60;86.20;;;;;;5069491;28;19993;-80
2021/12/11 12:18:09;;;;;;;;;;;4.70;85.70;;;;;;5071421;28;19976;-79
2021/12/11 12:20:35;;;;;;;;;;;4.70;85.60;;;;;;5074090;28;19909;-80
2021/12/11 12:23:01;;;;;;;;;;;4.60;85.50;;;;;;5072779;28;20040;-82
2021/12/11 12:25:26;;;;;;;;;;;4.50;85.50;;;;;;5062103;28;19909;-79
2021/12/11 12:27:52;;;;;;;;;;;4.50;85.80;;;;;;5048414;28;19914;-79
2021/12/11 12:30:20;;;;;;;;;;;4.50;85.70;;;;;;5034411;28;19920;-77
2021/12/11 12:32:47;;;;;;;;;;;4.60;86.10;;;;;;5046385;28;19913;-76
2021/12/11 12:35:15;;;;;;;;;;;4.60;85.40;;;;;;5046054;28;19919;-77
2021/12/11 12:37:41;;;;;;;;;;;4.50;85.60;;;;;;5049447;28;20396;-77
2021/12/11 12:40:08;;;;;;;;;;;4.50;86.20;;;;;;5040483;28;20013;-77
2021/12/11 12:42:38;;;;;;;;;;;4.60;86.30;;;;;;5035565;28;20337;-76
2021/12/11 12:45:03;;;;;;;;;;;4.60;86.10;;;;;;5037818;28;19910;-77
2021/12/11 12:47:30;;;;;;;;;;;4.60;86.10;;;;;;5052620;28;19920;-77
2021/12/11 12:49:57;;;;;;;;;;;4.60;86.10;;;;;;5051274;28;20301;-77
2021/12/11 12:52:26;;;;;;;;;;;4.60;86.00;;;;;;5050616;28;19924;-78
2021/12/11 12:54:51;;;;;;;;;;;4.60;86.00;;;;;;5052202;28;19948;-77
2021/12/11 12:57:20;;;;;;;;;;;4.60;85.80;;;;;;5050841;28;19909;-77
2021/12/11 13:00:06;;;;;;;;;;;4.60;85.70;;;;;;5049009;28;19913;-77
2021/12/11 13:02:32;;;;;;;;;;;4.70;85.20;;;;;;5023338;28;19916;-78
2021/12/11 13:05:06;;;;;;;;;;;4.70;85.00;;;;;;5048700;28;19947;-77
2021/12/11 13:07:32;;;;;;;;;;;4.70;85.20;;;;;;5064902;28;19913;-77
2021/12/11 13:10:00;;;;;;;;;;;4.60;85.30;;;;;;5049635;28;19975;-77
2021/12/11 13:12:28;;;;;;;;;;;4.60;85.60;;;;;;5045690;28;19936;-78
2021/12/11 13:14:55;;;;;;;;;;;4.60;85.60;;;;;;5046910;28;20309;-77
2021/12/11 13:17:26;;;;;;;;;;;4.60;85.80;;;;;;5044780;28;19917;-77
2021/12/11 13:19:54;;;;;;;;;;;4.50;85.60;;;;;;5041427;28;20015;-77
2021/12/11 13:22:23;;;;;;;;;;;4.60;85.90;;;;;;5042227;28;19920;-79
2021/12/11 13:24:50;;;;;;;;;;;4.60;85.80;;;;;;5048963;28;19909;-79
2021/12/11 13:27:18;;;;;;;;;;;4.60;86.10;;;;;;5051692;28;19929;-79
2021/12/11 13:29:46;;;;;;;;;;;4.50;86.20;;;;;;5050104;28;19916;-79
2021/12/11 13:32:16;;;;;;;;;;;4.60;86.30;;;;;;5054072;28;20361;-82
2021/12/11 13:34:43;;;;;;;;;;;4.70;86.20;;;;;;5057689;28;21468;-79
2021/12/11 13:37:10;;;;;;;;;;;4.80;86.10;;;;;;5049783;28;19917;-80
2021/12/11 13:39:36;;;;;;;;;;;4.70;86.20;;;;;;5050314;28;19917;-79
2021/12/11 13:42:05;;;;;;;;;;;4.60;86.20;;;;;;5054753;28;20003;-79
2021/12/11 13:44:32;;;;;;;;;;;4.70;86.50;;;;;;5046253;28;19924;-79
2021/12/11 13:46:59;;;;;;;;;;;4.80;86.60;;;;;;5058009;28;20393;-78
2021/12/11 13:49:25;;;;;;;;;;;4.80;86.70;;;;;;5042475;28;20011;-79
2021/12/11 13:51:51;;;;;;;;;;;4.80;86.50;;;;;;5056259;28;19952;-78
2021/12/11 13:54:17;;;;;;;;;;;4.60;86.60;;;;;;5055937;28;20266;-79
2021/12/11 13:56:54;;;;;;;;;;;4.60;87.00;;;;;;5050364;28;20337;-77
2021/12/11 13:59:20;;;;;;;;;;;4.80;86.90;;;;;;5050829;28;20349;-77
2021/12/11 14:01:46;;;;;;;;;;;4.80;86.90;;;;;;5050790;28;19975;-78
2021/12/11 14:04:13;;;;;;;;;;;4.80;86.90;;;;;;5043888;28;20010;-78
2021/12/11 14:06:47;;;;;;;;;;;4.80;86.80;;;;;;5049158;28;19913;-77
2021/12/11 14:09:14;;;;;;;;;;;4.80;87.00;;;;;;5046068;28;19921;-78
2021/12/11 14:11:39;;;;;;;;;;;4.60;87.00;;;;;;5049497;28;19913;-78
2021/12/11 14:14:08;;;;;;;;;;;4.60;87.00;;;;;;5043962;28;19913;-78
2021/12/11 14:16:34;;;;;;;;;;;4.60;87.20;;;;;;5044410;28;19996;-78
2021/12/11 14:18:59;;;;;;;;;;;4.50;87.50;;;;;;5046009;28;19916;-78
2021/12/11 14:21:25;;;;;;;;;;;4.40;87.90;;;;;;5046440;28;19967;-78
2021/12/11 14:23:52;;;;;;;;;;;4.40;88.10;;;;;;5052042;28;19912;-78
2021/12/11 14:26:22;;;;;;;;;;;4.60;87.90;;;;;;5048916;28;19913;-78
2021/12/11 14:28:48;;;;;;;;;;;4.60;87.60;;;;;;5051066;28;19920;-79
2021/12/11 14:31:15;;;;;;;;;;;4.60;87.50;;;;;;5050742;28;20103;-78
2021/12/11 14:33:41;;;;;;;;;;;4.60;87.70;;;;;;5057760;28;19912;-80
2021/12/11 14:36:08;;;;;;;;;;;4.60;87.60;;;;;;5057248;28;20004;-80
2021/12/11 14:38:34;;;;;;;;;;;4.50;87.70;;;;;;5064672;28;19913;-80
2021/12/11 14:41:00;;;;;;;;;;;4.50;88.00;;;;;;5058952;28;20430;-80
2021/12/11 14:43:26;;;;;;;;;;;4.40;88.10;;;;;;5053028;28;19913;-80
2021/12/11 14:45:53;;;;;;;;;;;4.30;88.60;;;;;;5061144;28;20042;-83
2021/12/11 14:48:19;;;;;;;;;;;4.50;88.80;;;;;;5057396;28;19928;-79